createdAt,value
2019-01-30T00:00:04.236Z,96040.77
2019-01-30T00:02:34.514Z,96035.44
2019-01-30T00:05:04.931Z,96032.34
2019-01-30T00:07:34.937Z,96024.77
2019-01-30T00:10:06.758Z,96025.74
2019-01-30T00:12:37.242Z,96019.80
2019-01-30T00:15:08.198Z,96019.09
2019-01-30T00:17:38.584Z,96014.19
2019-01-30T00:20:09.082Z,96011.67
2019-01-30T00:22:39.321Z,95998.06
2019-01-30T00:25:09.493Z,95995.42
2019-01-30T00:27:39.405Z,95998.06
2019-01-30T00:30:11.701Z,95999.02
2019-01-30T00:32:41.600Z,95992.92
2019-01-30T00:35:11.631Z,95984.52
2019-01-30T00:37:41.954Z,95977.03
2019-01-30T00:40:12.296Z,95967.08
2019-01-30T00:42:43.100Z,95965.83
2019-01-30T00:45:14.273Z,95967.14
2019-01-30T00:47:44.342Z,95960.84
2019-01-30T00:50:14.946Z,95949.85
2019-01-30T00:52:48.879Z,95945.13
2019-01-30T00:55:19.053Z,95933.75
2019-01-30T00:57:49.026Z,95935.33
2019-01-30T01:00:20.609Z,95929.92
2019-01-30T01:02:51.331Z,95928.20
2019-01-30T01:05:23.776Z,95927.88
2019-01-30T01:07:54.157Z,95924.79
2019-01-30T01:10:24.352Z,95917.13
2019-01-30T01:12:54.651Z,95923.18
2019-01-30T01:15:24.880Z,95925.97
2019-01-30T01:17:55.212Z,95922.30
2019-01-30T01:20:25.493Z,95931.87
2019-01-30T01:22:55.457Z,95928.61
2019-01-30T01:25:25.845Z,95938.08
2019-01-30T01:27:56.001Z,95930.01
2019-01-30T01:30:27.695Z,95931.55
2019-01-30T01:32:57.913Z,95931.81
2019-01-30T01:35:27.994Z,95933.09
2019-01-30T01:37:58.111Z,95925.94
2019-01-30T01:40:28.340Z,95929.69
2019-01-30T01:42:58.225Z,95926.12
2019-01-30T01:45:28.401Z,95929.72
2019-01-30T01:47:58.304Z,95928.80
2019-01-30T01:50:28.314Z,95924.16
2019-01-30T01:52:58.967Z,95917.95
2019-01-30T01:55:29.441Z,95917.69
2019-01-30T01:57:59.781Z,95915.45
2019-01-30T02:00:35.654Z,95903.31
2019-01-30T02:03:01.854Z,95896.69
2019-01-30T02:05:32.076Z,95885.14
2019-01-30T02:08:01.995Z,95883.85
2019-01-30T02:10:31.996Z,95871.14
2019-01-30T02:13:01.984Z,95872.34
2019-01-30T02:15:31.942Z,95863.75
2019-01-30T02:18:02.104Z,95857.46
2019-01-30T02:20:33.745Z,95856.33
2019-01-30T02:23:03.843Z,95851.33
2019-01-30T02:25:34.041Z,95838.40
2019-01-30T02:28:04.270Z,95833.70
2019-01-30T02:30:34.429Z,95824.01
2019-01-30T02:33:04.587Z,95822.76
2019-01-30T02:35:34.832Z,95819.34
2019-01-30T02:38:05.383Z,95808.87
2019-01-30T02:40:35.611Z,95807.15
2019-01-30T02:43:05.967Z,95808.39
2019-01-30T02:45:36.195Z,95809.63
2019-01-30T02:48:06.277Z,95797.44
2019-01-30T02:50:37.109Z,95798.64
2019-01-30T02:53:07.746Z,95791.33
2019-01-30T02:55:37.750Z,95786.61
2019-01-30T02:58:07.763Z,95788.63
2019-01-30T03:00:38.286Z,95783.00
2019-01-30T03:03:08.556Z,95787.52
2019-01-30T03:05:38.458Z,95792.17
2019-01-30T03:08:08.439Z,95788.85
2019-01-30T03:10:38.339Z,95789.17
2019-01-30T03:13:08.474Z,95785.53
2019-01-30T03:15:39.899Z,95780.09
2019-01-30T03:18:10.087Z,95781.15
2019-01-30T03:20:39.990Z,95784.73
2019-01-30T03:23:10.081Z,95786.13
2019-01-30T03:25:40.132Z,95782.05
2019-01-30T03:28:10.279Z,95782.38
2019-01-30T03:30:41.993Z,95784.69
2019-01-30T03:33:11.889Z,95786.68
2019-01-30T03:35:42.128Z,95786.81
2019-01-30T03:38:12.031Z,95778.23
2019-01-30T03:40:42.085Z,95779.27
2019-01-30T03:43:12.217Z,95773.58
2019-01-30T03:45:42.435Z,95770.84
2019-01-30T03:48:12.584Z,95774.33
2019-01-30T03:50:42.498Z,95779.00
2019-01-30T03:53:12.427Z,95776.56
2019-01-30T03:55:43.009Z,95763.45
2019-01-30T03:58:13.256Z,95768.19
2019-01-30T04:00:43.358Z,95759.70
2019-01-30T04:03:13.947Z,95770.23
2019-01-30T04:05:43.857Z,95768.98
2019-01-30T04:08:13.870Z,95769.19
2019-01-30T04:10:44.005Z,95768.38
2019-01-30T04:13:14.209Z,95755.88
2019-01-30T04:15:47.165Z,95753.52
2019-01-30T04:18:17.336Z,95750.70
2019-01-30T04:20:47.496Z,95742.22
2019-01-30T04:23:17.435Z,95738.31
2019-01-30T04:25:47.452Z,95738.58
2019-01-30T04:28:19.191Z,95733.23
2019-01-30T04:30:49.440Z,95732.12
2019-01-30T04:33:19.692Z,95726.80
2019-01-30T04:35:49.876Z,95725.20
2019-01-30T04:38:20.022Z,95730.52
2019-01-30T04:40:50.025Z,95727.06
2019-01-30T04:43:19.930Z,95727.33
2019-01-30T04:45:50.417Z,95723.22
2019-01-30T04:48:20.351Z,95719.09
2019-01-30T04:54:23.057Z,95719.03
2019-01-30T05:04:24.213Z,95717.06
2019-01-30T05:06:54.249Z,95724.98
2019-01-30T05:09:24.454Z,95721.71
2019-01-30T05:11:54.368Z,95732.89
2019-01-30T05:14:24.301Z,95727.66
2019-01-30T05:16:54.997Z,95721.80
2019-01-30T05:19:25.031Z,95726.14
2019-01-30T05:21:54.959Z,95717.26
2019-01-30T05:24:25.116Z,95716.97
2019-01-30T05:26:55.696Z,95708.17
2019-01-30T05:29:26.216Z,95703.15
2019-01-30T05:32:01.356Z,95708.07
2019-01-30T05:34:28.686Z,95691.47
2019-01-30T05:36:58.860Z,95691.77
2019-01-30T05:39:29.018Z,95680.22
2019-01-30T05:41:59.513Z,95692.47
2019-01-30T05:44:29.714Z,95693.08
2019-01-30T05:46:59.684Z,95692.00
2019-01-30T05:49:29.657Z,95678.08
2019-01-30T05:51:59.660Z,95669.45
2019-01-30T05:54:29.812Z,95680.80
2019-01-30T05:57:00.041Z,95675.62
2019-01-30T05:59:30.567Z,95672.77
2019-01-30T06:02:11.495Z,95667.29
2019-01-30T06:04:32.329Z,95668.18
2019-01-30T06:07:02.497Z,95667.73
2019-01-30T06:09:32.438Z,95669.75
2019-01-30T06:12:02.599Z,95668.66
2019-01-30T06:14:32.614Z,95663.50
2019-01-30T06:17:02.841Z,95671.28
2019-01-30T06:22:48.051Z,95659.02
2019-01-30T06:25:18.045Z,95665.64
2019-01-30T06:27:47.937Z,95671.33
2019-01-30T06:30:19.309Z,95661.16
2019-01-30T06:32:49.804Z,95666.94
2019-01-30T06:35:20.310Z,95660.20
2019-01-30T06:37:50.573Z,95673.31
2019-01-30T06:40:27.321Z,95671.05
2019-01-30T06:42:57.325Z,95677.02
2019-01-30T06:45:27.342Z,95672.70
2019-01-30T06:47:57.425Z,95675.28
2019-01-30T06:50:27.680Z,95665.39
2019-01-30T06:52:57.708Z,95662.69
2019-01-30T06:55:28.281Z,95663.45
2019-01-30T06:57:58.910Z,95662.85
2019-01-30T07:00:29.086Z,95662.56
2019-01-30T07:02:59.664Z,95666.73
2019-01-30T07:05:30.458Z,95675.80
2019-01-30T07:08:01.258Z,95678.34
2019-01-30T07:10:31.288Z,95681.05
2019-01-30T07:13:01.792Z,95691.59
2019-01-30T07:15:32.171Z,95698.12
2019-01-30T07:18:02.174Z,95704.63
2019-01-30T07:20:32.529Z,95702.95
2019-01-30T07:23:02.519Z,95704.73
2019-01-30T07:25:32.441Z,95701.36
2019-01-30T07:28:02.370Z,95705.38
2019-01-30T07:30:36.184Z,95705.32
2019-01-30T07:33:07.640Z,95702.42
2019-01-30T07:35:37.740Z,95706.70
2019-01-30T07:38:08.495Z,95700.95
2019-01-30T07:40:38.510Z,95709.55
2019-01-30T07:43:08.932Z,95713.06
2019-01-30T07:45:39.030Z,95717.02
2019-01-30T07:48:08.953Z,95722.28
2019-01-30T07:50:39.128Z,95728.78
2019-01-30T07:53:09.406Z,95724.05
2019-01-30T07:55:39.450Z,95725.51
2019-01-30T07:58:09.436Z,95730.25
2019-01-30T08:00:39.617Z,95734.81
2019-01-30T08:03:09.520Z,95737.92
2019-01-30T08:05:39.879Z,95736.19
2019-01-30T08:08:10.535Z,95742.48
2019-01-30T08:10:40.568Z,95734.88
2019-01-30T08:13:11.087Z,95742.13
2019-01-30T08:15:41.201Z,95748.80
2019-01-30T08:18:11.198Z,95744.95
2019-01-30T08:20:41.318Z,95751.22
2019-01-30T08:23:12.142Z,95740.19
2019-01-30T08:25:42.636Z,95743.28
2019-01-30T08:28:12.709Z,95740.72
2019-01-30T08:30:43.334Z,95739.95
2019-01-30T08:33:13.289Z,95746.13
2019-01-30T08:35:43.262Z,95746.38
2019-01-30T08:38:13.261Z,95757.41
2019-01-30T08:40:43.321Z,95753.24
2019-01-30T08:43:13.857Z,95763.95
2019-01-30T08:45:43.847Z,95756.89
2019-01-30T08:48:14.456Z,95763.27
2019-01-30T08:50:45.008Z,95760.31
2019-01-30T08:53:15.191Z,95763.96
2019-01-30T08:55:45.298Z,95762.36
2019-01-30T08:58:15.715Z,95765.97
2019-01-30T09:00:45.688Z,95765.92
2019-01-30T09:03:15.880Z,95764.28
2019-01-30T09:05:46.771Z,95766.30
2019-01-30T09:08:17.049Z,95765.08
2019-01-30T09:10:47.033Z,95771.55
2019-01-30T09:13:16.967Z,95776.00
2019-01-30T09:15:47.457Z,95778.87
2019-01-30T09:18:17.373Z,95763.95
2019-01-30T09:20:47.537Z,95775.73
2019-01-30T09:23:18.045Z,95775.22
2019-01-30T09:25:47.989Z,95780.11
2019-01-30T09:28:18.443Z,95781.00
2019-01-30T09:30:49.378Z,95783.88
2019-01-30T09:33:25.846Z,95788.99
2019-01-30T09:35:52.854Z,95789.61
2019-01-30T09:38:22.888Z,95789.79
2019-01-30T09:40:54.126Z,95794.27
2019-01-30T09:47:09.634Z,95797.55
2019-01-30T09:49:39.632Z,95801.92
2019-01-30T09:59:05.208Z,95818.14
2019-01-30T10:08:54.366Z,95828.12
2019-01-30T10:18:15.876Z,95836.70
2019-01-30T10:27:54.688Z,95842.50
2019-01-30T10:30:45.374Z,95832.97
2019-01-30T10:33:15.505Z,95841.33
2019-01-30T10:35:45.569Z,95846.77
2019-01-30T10:38:16.173Z,95840.94
2019-01-30T10:40:46.223Z,95835.03
2019-01-30T10:54:45.063Z,95826.45
2019-01-30T10:57:17.981Z,95836.30
2019-01-30T11:06:40.862Z,95850.77
2019-01-30T11:09:12.346Z,95850.91
2019-01-30T11:11:42.367Z,95851.97
2019-01-30T11:14:12.629Z,95854.30
2019-01-30T11:16:43.077Z,95862.69
2019-01-30T11:19:13.086Z,95857.33
2019-01-30T11:21:43.888Z,95850.36
2019-01-30T11:24:14.128Z,95865.23
2019-01-30T11:26:44.054Z,95862.58
2019-01-30T11:29:14.295Z,95849.02
2019-01-30T11:31:44.329Z,95847.14
2019-01-30T11:34:15.231Z,95857.23
2019-01-30T11:36:45.995Z,95854.23
2019-01-30T11:39:15.920Z,95851.98
2019-01-30T11:41:46.472Z,95860.05
2019-01-30T11:44:16.779Z,95860.27
2019-01-30T11:46:46.970Z,95864.34
2019-01-30T11:49:17.179Z,95868.32
2019-01-30T11:51:47.701Z,95862.34
2019-01-30T11:54:17.650Z,95867.70
2019-01-30T11:56:47.981Z,95874.38
2019-01-30T11:59:18.429Z,95872.77
2019-01-30T12:01:48.399Z,95876.55
2019-01-30T12:04:18.462Z,95877.87
2019-01-30T12:06:48.472Z,95877.23
2019-01-30T12:09:19.020Z,95885.48
2019-01-30T12:11:49.447Z,95887.32
2019-01-30T12:14:20.066Z,95893.87
2019-01-30T12:16:50.054Z,95891.33
2019-01-30T12:19:20.292Z,95890.56
2019-01-30T12:21:50.426Z,95886.21
2019-01-30T12:24:20.633Z,95892.61
2019-01-30T12:26:50.866Z,95883.14
2019-01-30T12:29:21.082Z,95904.09
2019-01-30T12:31:51.304Z,95893.17
2019-01-30T12:34:28.026Z,95909.00
2019-01-30T12:36:53.484Z,95916.89
2019-01-30T12:39:23.430Z,95914.91
2019-01-30T12:41:53.574Z,95914.10
2019-01-30T12:44:23.700Z,95904.05
2019-01-30T12:46:53.620Z,95916.56
2019-01-30T12:49:24.357Z,95918.78
2019-01-30T12:51:54.360Z,95923.75
2019-01-30T12:54:25.178Z,95918.92
2019-01-30T12:56:55.420Z,95914.81
2019-01-30T12:59:25.460Z,95909.64
2019-01-30T13:01:55.616Z,95915.86
2019-01-30T13:04:25.705Z,95917.34
2019-01-30T13:06:55.938Z,95929.64
2019-01-30T13:09:28.492Z,95938.84
2019-01-30T13:11:57.699Z,95920.95
2019-01-30T13:14:27.851Z,95925.48
2019-01-30T13:16:58.074Z,95934.45
2019-01-30T13:19:28.200Z,95929.63
2019-01-30T13:21:58.407Z,95934.74
2019-01-30T13:24:28.406Z,95942.07
2019-01-30T13:26:58.458Z,95941.81
2019-01-30T13:29:29.090Z,95947.28
2019-01-30T13:32:02.569Z,95952.20
2019-01-30T13:34:32.600Z,95945.69
2019-01-30T13:37:02.575Z,95956.61
2019-01-30T13:39:32.759Z,95954.52
2019-01-30T13:42:03.006Z,95955.08
2019-01-30T13:44:33.289Z,95968.97
2019-01-30T13:47:03.507Z,95969.80
2019-01-30T13:49:33.755Z,95976.70
2019-01-30T13:52:04.282Z,95970.90
2019-01-30T13:54:34.250Z,95985.70
2019-01-30T13:57:04.293Z,95977.58
2019-01-30T13:59:34.279Z,95989.70
2019-01-30T14:02:04.455Z,95993.81
2019-01-30T14:04:35.050Z,96011.95
2019-01-30T14:07:05.204Z,95995.48
2019-01-30T14:09:35.342Z,95994.53
2019-01-30T14:12:05.720Z,96011.95
2019-01-30T14:14:35.684Z,96007.05
2019-01-30T14:20:57.026Z,96010.06
2019-01-30T15:35:13.076Z,96154.02
2019-01-30T15:45:03.027Z,96163.91
2019-01-30T15:47:34.782Z,96176.63
2019-01-30T15:50:07.307Z,96175.30
2019-01-30T15:52:37.841Z,96185.88
2019-01-30T15:55:10.023Z,96186.58
2019-01-30T15:57:40.901Z,96190.43
2019-01-30T16:00:26.148Z,96193.97
2019-01-30T16:02:57.252Z,96193.33
2019-01-30T16:05:28.422Z,96191.69
2019-01-30T16:07:59.180Z,96201.91
2019-01-30T16:10:29.992Z,96209.86
2019-01-30T16:13:00.818Z,96211.05
2019-01-30T16:15:39.240Z,96213.69
2019-01-30T16:18:09.977Z,96218.89
2019-01-30T16:20:41.013Z,96226.36
2019-01-30T16:23:11.319Z,96224.97
2019-01-30T16:25:41.879Z,96238.83
2019-01-30T16:28:12.637Z,96239.53
2019-01-30T16:30:43.046Z,96234.55
2019-01-30T16:33:13.447Z,96242.64
2019-01-30T16:35:55.794Z,96250.85
2019-01-30T16:38:20.247Z,96248.13
2019-01-30T16:40:51.437Z,96257.14
2019-01-30T16:43:22.175Z,96261.50
2019-01-30T16:45:52.574Z,96253.38
2019-01-30T16:48:23.169Z,96259.09
2019-01-30T16:50:54.487Z,96268.00
2019-01-30T16:53:25.492Z,96267.44
2019-01-30T16:55:56.114Z,96269.66
2019-01-30T16:58:27.167Z,96267.66
2019-01-30T17:00:58.414Z,96274.67
2019-01-30T17:03:29.704Z,96287.15
2019-01-30T17:06:07.403Z,96277.92
2019-01-30T17:08:34.432Z,96284.14
2019-01-30T17:11:05.808Z,96289.07
2019-01-30T17:13:37.201Z,96303.79
2019-01-30T17:16:08.098Z,96302.25
2019-01-30T17:18:39.150Z,96304.14
2019-01-30T17:21:10.242Z,96306.48
2019-01-30T17:23:41.369Z,96302.41
2019-01-30T17:26:12.564Z,96305.66
2019-01-30T17:28:44.384Z,96301.77
2019-01-30T17:31:23.922Z,96306.00
2019-01-30T17:33:55.848Z,96311.36
2019-01-30T17:36:27.363Z,96323.58
2019-01-30T17:38:58.658Z,96325.63
2019-01-30T17:41:30.214Z,96332.69
2019-01-30T17:44:01.983Z,96338.32
2019-01-30T17:46:33.337Z,96338.45
2019-01-30T17:49:05.136Z,96342.13
2019-01-30T17:51:36.380Z,96350.28
2019-01-30T17:54:07.951Z,96351.94
2019-01-30T17:56:39.347Z,96342.61
2019-01-30T17:59:10.763Z,96344.45
2019-01-30T18:01:41.933Z,96352.50
2019-01-30T18:04:13.306Z,96360.40
2019-01-30T18:06:45.361Z,96353.41
2019-01-30T18:09:17.048Z,96354.52
2019-01-30T18:11:47.853Z,96360.00
2019-01-30T18:14:22.196Z,96353.59
2019-01-30T18:16:54.117Z,96362.69
2019-01-30T18:19:25.564Z,96366.45
2019-01-30T18:21:57.152Z,96366.55
2019-01-30T18:24:28.201Z,96372.66
2019-01-30T18:26:59.508Z,96380.17
2019-01-30T18:29:30.578Z,96381.47
2019-01-30T18:32:01.711Z,96385.58
2019-01-30T18:34:32.772Z,96386.20
2019-01-30T18:37:04.331Z,96392.70
2019-01-30T18:39:35.449Z,96399.55
2019-01-30T18:42:07.122Z,96400.83
2019-01-30T18:44:38.662Z,96404.73
2019-01-30T18:47:10.097Z,96406.76
2019-01-30T18:49:42.475Z,96404.81
2019-01-30T18:52:14.890Z,96403.26
2019-01-30T18:54:46.461Z,96406.43
2019-01-30T18:57:17.781Z,96405.25
2019-01-30T18:59:48.959Z,96404.03
2019-01-30T19:02:20.191Z,96411.84
2019-01-30T19:04:51.296Z,96410.16
2019-01-30T19:07:22.306Z,96415.67
2019-01-30T19:09:53.454Z,96411.59
2019-01-30T19:12:24.615Z,96414.77
2019-01-30T19:14:56.091Z,96412.23
2019-01-30T19:17:27.664Z,96411.94
2019-01-30T19:19:59.102Z,96409.73
2019-01-30T19:22:31.202Z,96412.23
2019-01-30T19:28:47.465Z,96407.72
2019-01-30T19:31:20.218Z,96406.29
2019-01-30T19:33:52.734Z,96401.70
2019-01-30T19:36:24.360Z,96401.52
2019-01-30T19:38:56.173Z,96405.58
2019-01-30T19:41:27.797Z,96402.15
2019-01-30T19:43:59.770Z,96411.03
2019-01-30T19:46:31.257Z,96411.33
2019-01-30T19:49:03.050Z,96416.81
2019-01-30T19:51:34.719Z,96411.47
2019-01-30T19:54:06.701Z,96414.16
2019-01-30T19:56:38.402Z,96418.06
2019-01-30T19:59:17.279Z,96413.35
2019-01-30T20:05:35.346Z,96419.67
2019-01-30T20:08:07.463Z,96420.63
2019-01-30T20:10:40.175Z,96413.44
2019-01-30T20:17:03.058Z,96417.20
2019-01-30T20:19:35.239Z,96419.42
2019-01-30T20:26:10.424Z,96417.63
2019-01-30T20:28:45.548Z,96416.71
2019-01-30T20:31:17.465Z,96421.11
2019-01-30T20:33:49.725Z,96418.89
2019-01-30T20:36:22.185Z,96414.52
2019-01-30T20:38:54.149Z,96420.30
2019-01-30T20:41:25.936Z,96426.36
2019-01-30T20:43:57.478Z,96425.10
2019-01-30T20:46:30.544Z,96422.89
2019-01-30T20:49:04.545Z,96431.48
2019-01-30T20:51:36.228Z,96424.26
2019-01-30T20:54:08.302Z,96425.33
2019-01-30T20:56:40.021Z,96425.11
2019-01-30T20:59:12.411Z,96425.54
2019-01-30T21:01:44.479Z,96418.48
2019-01-30T21:04:18.504Z,96421.88
2019-01-30T21:06:49.963Z,96429.18
2019-01-30T21:09:21.756Z,96429.28
2019-01-30T21:11:54.470Z,96427.39
2019-01-30T21:14:26.551Z,96427.80
2019-01-30T21:16:58.511Z,96430.95
2019-01-30T21:19:29.948Z,96429.77
2019-01-30T21:22:01.334Z,96432.80
2019-01-30T21:24:32.832Z,96429.00
2019-01-30T21:27:06.638Z,96427.80
2019-01-30T21:29:38.749Z,96416.88
2019-01-30T21:32:11.625Z,96418.08
2019-01-30T21:34:43.186Z,96424.23
2019-01-30T21:37:14.579Z,96423.55
2019-01-30T21:39:46.715Z,96419.63
2019-01-30T21:42:18.341Z,96417.06
2019-01-30T21:44:50.935Z,96415.22
2019-01-30T21:47:22.020Z,96419.73
2019-01-30T21:49:54.203Z,96417.40
2019-01-30T21:52:25.503Z,96416.16
2019-01-30T21:54:56.454Z,96418.44
2019-01-30T21:57:27.161Z,96420.56
2019-01-30T21:59:58.278Z,96420.34
2019-01-30T22:02:29.346Z,96414.68
2019-01-30T22:05:00.314Z,96413.67
2019-01-30T22:07:31.299Z,96409.91
2019-01-30T22:10:02.061Z,96409.72
2019-01-30T22:12:32.590Z,96409.05
2019-01-30T22:15:03.523Z,96410.31
2019-01-30T22:17:34.323Z,96410.49
2019-01-30T22:20:05.972Z,96409.38
2019-01-30T22:22:36.995Z,96407.82
2019-01-30T22:25:19.653Z,96411.64
2019-01-30T22:27:41.016Z,96409.94
2019-01-30T22:30:21.201Z,96407.45
2019-01-30T22:32:52.348Z,96412.52
2019-01-30T22:35:22.360Z,96414.36
2019-01-30T22:37:52.352Z,96418.53
2019-01-30T22:40:22.459Z,96409.15
2019-01-30T22:42:52.888Z,96404.78
2019-01-30T22:45:23.235Z,96403.37
2019-01-30T22:47:54.138Z,96400.64
2019-01-30T22:50:24.303Z,96404.56
2019-01-30T22:52:54.591Z,96403.84
2019-01-30T22:55:25.102Z,96402.78
2019-01-30T22:57:55.257Z,96398.09
2019-01-30T23:01:15.127Z,96396.03
2019-01-30T23:04:16.522Z,96389.47
2019-01-30T23:07:37.578Z,96398.03
2019-01-30T23:11:05.632Z,96395.33
2019-01-30T23:14:31.765Z,96392.95
2019-01-30T23:17:59.475Z,96389.94
2019-01-30T23:20:41.025Z,96394.30
2019-01-30T23:23:43.648Z,96393.16
2019-01-30T23:27:01.572Z,96391.77
2019-01-30T23:30:32.172Z,96386.25
2019-01-30T23:33:35.623Z,96384.55
2019-01-30T23:36:46.115Z,96381.63
2019-01-30T23:39:55.350Z,96378.92
2019-01-30T23:43:10.111Z,96379.89
2019-01-30T23:45:56.793Z,96374.38
2019-01-30T23:49:07.602Z,96372.20
2019-01-30T23:52:11.905Z,96366.16
2019-01-30T23:55:08.572Z,96365.95
2019-01-30T23:58:56.825Z,96364.52
